createdAt,value
2023-05-20T00:01:56.388Z,99.30
2023-05-20T00:04:23.477Z,99.30
2023-05-20T00:06:50.770Z,99.30
2023-05-20T00:09:17.802Z,99.30
2023-05-20T00:11:45.919Z,99.20
2023-05-20T00:14:12.958Z,99.20
2023-05-20T00:16:40.018Z,99.40
2023-05-20T00:19:07.470Z,99.20
2023-05-20T00:21:34.773Z,99.20
2023-05-20T00:24:01.873Z,99.20
2023-05-20T00:26:29.395Z,99.20
2023-05-20T00:28:57.702Z,99.20
2023-05-20T00:31:24.932Z,99.20
2023-05-20T00:33:52.626Z,99.10
2023-05-20T00:36:19.586Z,99.20
2023-05-20T00:38:48.111Z,99.10
2023-05-20T00:41:15.155Z,99.10
2023-05-20T00:43:42.219Z,99.10
2023-05-20T00:46:10.655Z,99.10
2023-05-20T00:48:42.733Z,99.10
2023-05-20T00:51:10.977Z,99.00
2023-05-20T00:53:38.809Z,99.10
2023-05-20T00:56:06.298Z,99.00
2023-05-20T00:58:37.146Z,99.10
2023-05-20T01:01:06.165Z,99.00
2023-05-20T01:03:33.814Z,99.00
2023-05-20T01:06:01.372Z,99.00
2023-05-20T01:08:28.847Z,99.10
2023-05-20T01:11:05.059Z,99.10
2023-05-20T01:13:36.921Z,99.10
2023-05-20T01:16:04.289Z,99.00
2023-05-20T01:18:33.131Z,99.00
2023-05-20T01:21:02.594Z,99.00
2023-05-20T01:23:33.943Z,99.00
2023-05-20T01:26:00.902Z,99.00
2023-05-20T01:28:30.358Z,99.00
2023-05-20T01:31:00.110Z,99.00
2023-05-20T01:33:28.445Z,99.00
2023-05-20T01:35:56.300Z,99.00
2023-05-20T01:38:24.351Z,98.90
2023-05-20T01:40:51.533Z,99.00
2023-05-20T01:43:18.962Z,99.00
2023-05-20T01:45:46.084Z,99.00
2023-05-20T01:48:13.561Z,98.90
2023-05-20T01:50:41.475Z,99.00
2023-05-20T01:53:09.741Z,98.90
2023-05-20T01:55:36.938Z,98.90
2023-05-20T01:58:04.183Z,99.00
2023-05-20T02:00:35.160Z,98.90
2023-05-20T02:03:03.923Z,98.90
2023-05-20T02:05:31.117Z,99.00
2023-05-20T02:07:58.610Z,98.90
2023-05-20T02:10:25.686Z,98.90
2023-05-20T02:12:52.670Z,98.90
2023-05-20T02:15:19.637Z,99.00
2023-05-20T02:17:47.216Z,99.00
2023-05-20T02:20:15.039Z,99.00
2023-05-20T02:22:42.069Z,99.00
2023-05-20T02:25:10.946Z,99.00
2023-05-20T02:27:38.017Z,99.00
2023-05-20T02:30:05.299Z,99.00
2023-05-20T02:32:33.717Z,99.00
2023-05-20T02:35:01.023Z,99.10
2023-05-20T02:37:29.114Z,99.90
2023-05-20T02:39:56.576Z,99.90
2023-05-20T02:42:23.570Z,99.90
2023-05-20T02:44:51.031Z,99.80
2023-05-20T02:47:18.376Z,99.90
2023-05-20T02:49:45.469Z,99.90
2023-05-20T02:52:12.527Z,99.90
2023-05-20T02:54:39.641Z,99.90
2023-05-20T02:57:07.184Z,99.80
2023-05-20T02:59:34.139Z,99.70
2023-05-20T03:02:01.337Z,99.70
2023-05-20T03:04:28.476Z,99.90
2023-05-20T03:06:57.952Z,99.90
2023-05-20T03:09:25.421Z,99.90
2023-05-20T03:11:52.530Z,99.80
2023-05-20T03:14:19.630Z,99.60
2023-05-20T03:16:46.687Z,99.60
2023-05-20T03:19:13.647Z,99.60
2023-05-20T03:21:41.329Z,99.60
2023-05-20T03:24:08.624Z,99.70
2023-05-20T03:26:37.792Z,99.60
2023-05-20T03:29:05.884Z,99.50
2023-05-20T03:31:33.245Z,99.60
2023-05-20T03:34:00.394Z,99.50
2023-05-20T03:36:27.554Z,99.40
2023-05-20T03:38:54.648Z,99.40
2023-05-20T03:41:22.447Z,99.40
2023-05-20T03:43:49.667Z,99.30
2023-05-20T03:46:16.850Z,99.30
2023-05-20T03:48:44.059Z,99.40
2023-05-20T03:51:11.588Z,99.40
2023-05-20T03:53:39.023Z,99.40
2023-05-20T03:56:06.378Z,99.50
2023-05-20T03:58:38.791Z,99.70
2023-05-20T04:01:06.488Z,99.90
2023-05-20T04:03:34.503Z,99.90
2023-05-20T04:06:01.835Z,99.80
2023-05-20T04:08:29.263Z,99.80
2023-05-20T04:10:56.983Z,99.80
2023-05-20T04:13:25.505Z,99.80
2023-05-20T04:15:53.983Z,99.80
2023-05-20T04:18:26.701Z,99.90
2023-05-20T04:21:00.383Z,99.90
2023-05-20T04:23:39.133Z,99.90
2023-05-20T04:26:07.424Z,99.90
2023-05-20T04:28:41.111Z,99.90
2023-05-20T04:31:08.975Z,99.90
2023-05-20T04:33:40.223Z,99.90
2023-05-20T04:36:13.491Z,99.90
2023-05-20T04:38:42.511Z,99.90
2023-05-20T04:41:12.035Z,99.90
2023-05-20T04:43:41.017Z,99.90
2023-05-20T04:46:08.864Z,99.90
2023-05-20T04:48:36.482Z,99.90
2023-05-20T04:51:03.676Z,99.90
2023-05-20T04:53:32.000Z,99.90
2023-05-20T04:56:04.134Z,99.90
2023-05-20T04:58:34.983Z,99.90
2023-05-20T05:01:05.366Z,99.90
2023-05-20T05:03:32.629Z,99.90
2023-05-20T05:06:00.355Z,99.90
2023-05-20T05:08:27.326Z,99.90
2023-05-20T05:10:55.007Z,99.90
2023-05-20T05:13:21.968Z,99.90
2023-05-20T05:15:49.480Z,99.90
2023-05-20T05:18:18.702Z,99.90
2023-05-20T05:20:46.744Z,99.90
2023-05-20T05:23:14.823Z,99.90
2023-05-20T05:25:41.876Z,99.90
2023-05-20T05:28:09.075Z,99.90
2023-05-20T05:30:37.735Z,99.90
2023-05-20T05:33:06.047Z,99.90
2023-05-20T05:35:33.429Z,99.90
2023-05-20T05:38:03.215Z,99.90
2023-05-20T05:40:30.214Z,99.90
2023-05-20T05:42:57.362Z,99.90
2023-05-20T05:45:25.133Z,99.90
2023-05-20T05:47:52.387Z,99.90
2023-05-20T05:50:20.591Z,99.90
2023-05-20T05:52:47.613Z,99.90
2023-05-20T05:55:15.134Z,99.90
2023-05-20T05:57:42.220Z,99.90
2023-05-20T06:00:10.644Z,99.90
2023-05-20T06:02:46.881Z,99.90
2023-05-20T06:05:31.560Z,99.90
2023-05-20T06:07:58.642Z,99.90
2023-05-20T06:10:26.233Z,99.90
2023-05-20T06:12:53.295Z,99.90
2023-05-20T06:15:20.666Z,99.90
2023-05-20T06:17:47.775Z,99.90
2023-05-20T06:20:16.340Z,99.90
2023-05-20T06:22:44.018Z,99.90
2023-05-20T06:25:12.500Z,99.90
2023-05-20T06:27:40.251Z,99.90
2023-05-20T06:30:10.023Z,99.90
2023-05-20T06:32:37.088Z,99.90
2023-05-20T06:35:04.207Z,99.90
2023-05-20T06:37:31.183Z,99.90
2023-05-20T06:39:58.306Z,99.90
2023-05-20T06:42:26.217Z,99.90
2023-05-20T06:45:06.183Z,99.90
2023-05-20T06:47:37.554Z,99.90
2023-05-20T06:50:04.790Z,99.90
2023-05-20T06:52:32.458Z,99.90
2023-05-20T06:54:59.433Z,99.90
2023-05-20T06:57:26.908Z,99.90
2023-05-20T06:59:53.882Z,99.90
2023-05-20T07:02:22.198Z,99.90
2023-05-20T07:04:49.592Z,99.90
2023-05-20T07:07:17.445Z,99.90
2023-05-20T07:09:45.874Z,99.90
2023-05-20T07:12:12.892Z,99.90
2023-05-20T07:14:39.940Z,99.90
2023-05-20T07:17:07.132Z,99.90
2023-05-20T07:19:34.302Z,99.90
2023-05-20T07:22:01.710Z,99.90
2023-05-20T07:24:39.668Z,99.90
2023-05-20T07:27:07.138Z,99.90
2023-05-20T07:29:35.117Z,99.90
2023-05-20T07:32:04.033Z,99.90
2023-05-20T07:34:31.813Z,99.90
2023-05-20T07:37:01.494Z,99.90
2023-05-20T07:39:28.513Z,99.90
2023-05-20T07:41:55.558Z,99.90
2023-05-20T07:44:23.741Z,99.90
2023-05-20T07:46:52.753Z,99.90
2023-05-20T07:49:20.644Z,99.90
2023-05-20T07:51:48.190Z,99.90
2023-05-20T07:54:32.044Z,99.90
2023-05-20T07:57:00.446Z,99.90
2023-05-20T07:59:29.238Z,99.90
2023-05-20T08:01:56.877Z,99.90
2023-05-20T08:04:25.023Z,99.90
2023-05-20T08:06:53.235Z,99.90
2023-05-20T08:09:30.808Z,99.90
2023-05-20T08:11:58.607Z,99.90
2023-05-20T08:14:25.840Z,99.90
2023-05-20T08:16:55.123Z,99.90
2023-05-20T08:19:22.791Z,99.90
2023-05-20T08:21:50.109Z,99.90
2023-05-20T08:24:17.963Z,99.90
2023-05-20T08:26:45.772Z,99.90
2023-05-20T08:29:12.959Z,99.90
2023-05-20T08:31:40.351Z,99.90
2023-05-20T08:34:08.175Z,99.90
2023-05-20T08:36:35.793Z,99.90
2023-05-20T08:39:04.436Z,99.90
2023-05-20T08:41:31.957Z,99.90
2023-05-20T08:44:02.655Z,99.90
2023-05-20T08:46:31.794Z,99.90
2023-05-20T08:48:59.629Z,99.90
2023-05-20T08:51:28.189Z,99.90
2023-05-20T08:53:55.228Z,99.90
2023-05-20T08:56:23.710Z,99.90
2023-05-20T08:58:50.789Z,99.90
2023-05-20T09:01:18.090Z,99.90
2023-05-20T09:03:45.359Z,99.90
2023-05-20T09:06:18.221Z,99.90
2023-05-20T09:08:45.371Z,99.90
2023-05-20T09:11:12.934Z,99.90
2023-05-20T09:13:40.136Z,99.90
2023-05-20T09:16:07.532Z,99.90
2023-05-20T09:18:38.309Z,99.90
2023-05-20T09:21:09.318Z,99.90
2023-05-20T09:23:39.508Z,99.90
2023-05-20T09:26:07.042Z,99.90
2023-05-20T09:28:36.152Z,99.90
2023-05-20T09:31:03.244Z,99.90
2023-05-20T09:33:32.322Z,99.90
2023-05-20T09:36:04.633Z,99.90
2023-05-20T09:38:38.242Z,99.90
2023-05-20T09:41:13.059Z,99.90
2023-05-20T09:43:41.023Z,99.90
2023-05-20T09:46:09.220Z,99.90
2023-05-20T09:48:39.945Z,99.90
2023-05-20T09:51:08.068Z,99.90
2023-05-20T09:53:36.131Z,99.90
2023-05-20T09:56:03.768Z,99.90
2023-05-20T09:58:31.528Z,99.90
2023-05-20T10:00:58.922Z,99.90
2023-05-20T10:03:28.316Z,99.90
2023-05-20T10:06:21.512Z,99.90
2023-05-20T10:08:48.544Z,99.90
2023-05-20T10:11:40.915Z,99.90
2023-05-20T10:14:42.216Z,99.90
2023-05-20T10:17:27.541Z,99.90
2023-05-20T10:20:02.014Z,99.90
2023-05-20T10:22:31.717Z,99.90
2023-05-20T10:25:07.402Z,99.90
2023-05-20T10:27:47.055Z,99.90
2023-05-20T10:30:22.063Z,99.90
2023-05-20T10:33:05.104Z,99.90
2023-05-20T10:35:32.807Z,99.90
2023-05-20T10:38:13.201Z,99.90
2023-05-20T10:40:41.064Z,99.90
2023-05-20T10:43:15.216Z,99.90
2023-05-20T10:45:53.644Z,99.90
2023-05-20T10:48:29.894Z,99.90
2023-05-20T10:50:59.797Z,98.30
2023-05-20T10:53:34.382Z,98.00
2023-05-20T10:56:02.716Z,97.80
2023-05-20T10:58:37.967Z,97.90
2023-05-20T11:01:05.314Z,97.80
2023-05-20T11:03:35.020Z,97.70
2023-05-20T11:06:02.270Z,98.10
2023-05-20T11:08:33.944Z,97.50
2023-05-20T11:11:01.062Z,97.10
2023-05-20T11:13:28.352Z,96.50
2023-05-20T11:15:55.787Z,96.00
2023-05-20T11:18:22.976Z,95.90
2023-05-20T11:20:50.235Z,94.70
2023-05-20T11:23:17.469Z,94.40
2023-05-20T11:25:44.605Z,94.10
2023-05-20T11:28:15.026Z,93.80
2023-05-20T11:30:45.561Z,91.60
2023-05-20T11:33:14.204Z,92.60
2023-05-20T11:35:49.775Z,92.80
2023-05-20T11:38:17.603Z,92.50
2023-05-20T11:40:51.001Z,92.50
2023-05-20T11:43:19.440Z,92.80
2023-05-20T11:45:47.604Z,92.00
2023-05-20T11:48:17.608Z,91.30
2023-05-20T11:50:46.524Z,90.70
2023-05-20T11:53:18.874Z,90.20
2023-05-20T11:55:48.953Z,87.30
2023-05-20T11:58:18.482Z,90.30
2023-05-20T12:00:52.804Z,89.90
2023-05-20T12:03:22.958Z,85.30
2023-05-20T12:05:51.350Z,87.50
2023-05-20T12:08:18.711Z,86.40
2023-05-20T12:10:46.002Z,85.10
2023-05-20T12:13:13.748Z,80.70
2023-05-20T12:15:41.337Z,86.50
2023-05-20T12:18:08.533Z,87.00
2023-05-20T12:20:37.324Z,86.20
2023-05-20T12:23:04.990Z,86.30
2023-05-20T12:25:32.170Z,89.10
2023-05-20T12:27:59.737Z,85.30
2023-05-20T12:30:26.864Z,86.40
2023-05-20T12:32:54.108Z,88.60
2023-05-20T12:35:40.879Z,89.20
2023-05-20T12:38:08.335Z,87.70
2023-05-20T12:40:36.670Z,88.10
2023-05-20T12:43:05.377Z,88.50
2023-05-20T12:45:32.506Z,89.30
2023-05-20T12:48:00.456Z,90.10
2023-05-20T12:50:27.548Z,88.20
2023-05-20T12:52:54.738Z,88.00
2023-05-20T12:55:22.187Z,87.90
2023-05-20T12:57:50.517Z,88.90
2023-05-20T13:00:18.092Z,87.30
2023-05-20T13:02:45.400Z,87.80
2023-05-20T13:05:13.400Z,85.40
2023-05-20T13:07:40.635Z,83.10
2023-05-20T13:10:10.487Z,84.60
2023-05-20T13:12:37.920Z,84.30
2023-05-20T13:15:05.493Z,84.90
2023-05-20T13:17:32.629Z,85.50
2023-05-20T13:19:59.725Z,85.00
2023-05-20T13:22:26.805Z,84.30
2023-05-20T13:24:54.072Z,85.50
2023-05-20T13:27:21.283Z,83.00
2023-05-20T13:29:48.376Z,83.00
2023-05-20T13:32:15.700Z,81.70
2023-05-20T13:34:43.023Z,78.40
2023-05-20T13:37:13.070Z,78.80
2023-05-20T13:39:40.293Z,78.40
2023-05-20T13:42:07.408Z,81.10
2023-05-20T13:44:34.515Z,74.60
2023-05-20T13:47:01.678Z,81.60
2023-05-20T13:49:28.975Z,79.70
2023-05-20T13:51:56.321Z,79.00
2023-05-20T13:54:23.440Z,78.30
2023-05-20T13:56:50.505Z,73.00
2023-05-20T13:59:17.708Z,78.70
2023-05-20T14:01:46.638Z,81.20
2023-05-20T14:04:13.839Z,80.90
2023-05-20T14:06:41.615Z,80.70
2023-05-20T14:09:09.361Z,80.90
2023-05-20T14:11:36.798Z,81.80
2023-05-20T14:14:03.905Z,79.60
2023-05-20T14:16:31.920Z,82.50
2023-05-20T14:19:02.344Z,82.90
2023-05-20T14:21:29.505Z,82.80
2023-05-20T14:23:57.570Z,84.10
2023-05-20T14:26:24.712Z,82.20
2023-05-20T14:28:52.341Z,78.00
2023-05-20T14:31:19.553Z,78.70
2023-05-20T14:33:46.761Z,83.40
2023-05-20T14:36:13.890Z,83.60
2023-05-20T14:38:40.966Z,84.50
2023-05-20T14:41:08.027Z,82.20
2023-05-20T14:43:35.084Z,85.00
2023-05-20T14:46:03.208Z,81.60
2023-05-20T14:48:30.322Z,85.10
2023-05-20T14:50:57.478Z,80.90
2023-05-20T14:53:24.576Z,84.40
2023-05-20T14:55:51.631Z,82.40
2023-05-20T14:58:18.762Z,83.80
2023-05-20T15:00:46.094Z,83.80
2023-05-20T15:03:13.321Z,84.80
2023-05-20T15:05:41.331Z,82.40
2023-05-20T15:08:08.440Z,82.90
2023-05-20T15:10:36.297Z,84.80
2023-05-20T15:13:03.590Z,82.30
2023-05-20T15:15:30.813Z,84.70
2023-05-20T15:17:57.920Z,85.20
2023-05-20T15:20:25.108Z,85.10
2023-05-20T15:22:52.276Z,83.20
2023-05-20T15:25:19.388Z,81.80
2023-05-20T15:27:46.494Z,84.50
2023-05-20T15:30:14.379Z,84.50
2023-05-20T15:32:42.885Z,84.70
2023-05-20T15:35:10.224Z,84.10
2023-05-20T15:37:37.371Z,84.80
2023-05-20T15:40:04.737Z,82.60
2023-05-20T15:42:31.961Z,84.40
2023-05-20T15:44:59.179Z,84.50
2023-05-20T15:47:26.422Z,84.30
2023-05-20T15:49:54.620Z,84.60
2023-05-20T15:52:21.790Z,82.60
2023-05-20T15:54:48.893Z,81.60
2023-05-20T15:57:16.140Z,79.50
2023-05-20T15:59:43.341Z,80.30
2023-05-20T16:02:10.571Z,81.30
2023-05-20T16:04:37.693Z,80.90
2023-05-20T16:07:04.945Z,81.60
2023-05-20T16:09:32.003Z,81.00
2023-05-20T16:11:59.132Z,80.30
2023-05-20T16:14:26.256Z,79.40
2023-05-20T16:16:53.465Z,80.30
2023-05-20T16:19:20.629Z,80.80
2023-05-20T16:21:47.702Z,81.60
2023-05-20T16:24:15.507Z,83.60
2023-05-20T16:26:42.647Z,82.90
2023-05-20T16:29:09.834Z,82.10
2023-05-20T16:31:37.068Z,82.70
2023-05-20T16:34:04.569Z,83.00
2023-05-20T16:36:31.914Z,83.30
2023-05-20T16:38:59.035Z,82.80
2023-05-20T16:41:26.390Z,83.70
2023-05-20T16:43:53.534Z,83.30
2023-05-20T16:46:21.596Z,82.90
2023-05-20T16:48:48.724Z,83.40
2023-05-20T16:51:15.816Z,83.60
2023-05-20T16:53:42.944Z,83.60
2023-05-20T16:56:10.148Z,84.30
2023-05-20T16:58:37.359Z,84.80
2023-05-20T17:01:04.536Z,83.60
2023-05-20T17:03:32.391Z,83.80
2023-05-20T17:05:59.484Z,83.90
2023-05-20T17:08:26.619Z,84.90
2023-05-20T17:10:54.418Z,84.80
2023-05-20T17:13:22.193Z,85.30
2023-05-20T17:15:49.386Z,85.00
2023-05-20T17:18:16.884Z,85.70
2023-05-20T17:20:43.940Z,85.40
2023-05-20T17:23:11.173Z,85.20
2023-05-20T17:25:40.974Z,85.70
2023-05-20T17:28:08.079Z,86.10
2023-05-20T17:30:35.285Z,85.80
2023-05-20T17:33:02.687Z,85.90
2023-05-20T17:35:31.712Z,84.90
2023-05-20T17:37:58.944Z,85.70
2023-05-20T17:40:26.197Z,85.70
2023-05-20T17:42:53.365Z,85.00
2023-05-20T17:45:20.474Z,84.80
2023-05-20T17:47:47.648Z,83.60
2023-05-20T17:50:16.659Z,83.90
2023-05-20T17:52:43.801Z,83.70
2023-05-20T17:55:11.096Z,83.30
2023-05-20T17:57:38.252Z,83.90
2023-05-20T18:00:06.618Z,83.50
2023-05-20T18:02:33.702Z,83.50
2023-05-20T18:05:01.213Z,83.90
2023-05-20T18:07:30.504Z,83.90
2023-05-20T18:09:57.615Z,83.60
2023-05-20T18:12:24.674Z,83.60
2023-05-20T18:14:51.777Z,84.00
2023-05-20T18:17:19.082Z,83.90
2023-05-20T18:19:46.466Z,83.50
2023-05-20T18:22:13.682Z,84.30
2023-05-20T18:24:42.066Z,84.60
2023-05-20T18:27:09.136Z,84.80
2023-05-20T18:29:36.236Z,84.90
2023-05-20T18:32:03.423Z,84.80
2023-05-20T18:34:33.191Z,85.10
2023-05-20T18:37:00.763Z,84.90
2023-05-20T18:39:27.832Z,84.40
2023-05-20T18:41:54.909Z,84.90
2023-05-20T18:44:22.055Z,85.40
2023-05-20T18:46:49.260Z,85.30
2023-05-20T18:49:16.408Z,85.40
2023-05-20T18:51:43.552Z,85.60
2023-05-20T18:54:11.328Z,85.30
2023-05-20T18:56:38.707Z,85.50
2023-05-20T18:59:05.865Z,85.90
2023-05-20T19:01:33.918Z,85.50
2023-05-20T19:04:01.478Z,85.40
2023-05-20T19:06:28.584Z,85.40
2023-05-20T19:08:55.806Z,85.60
2023-05-20T19:11:22.892Z,85.60
2023-05-20T19:13:49.960Z,85.80
2023-05-20T19:16:17.192Z,85.90
2023-05-20T19:18:44.266Z,85.90
2023-05-20T19:21:11.484Z,85.80
2023-05-20T19:23:38.612Z,85.60
2023-05-20T19:26:05.906Z,85.90
2023-05-20T19:28:32.924Z,85.70
2023-05-20T19:31:00.033Z,86.20
2023-05-20T19:33:27.193Z,85.80
2023-05-20T19:35:54.308Z,85.90
2023-05-20T19:38:21.765Z,85.80
2023-05-20T19:40:49.147Z,86.00
2023-05-20T19:43:16.396Z,86.00
2023-05-20T19:45:43.530Z,85.80
2023-05-20T19:48:10.916Z,85.90
2023-05-20T19:50:38.235Z,86.00
2023-05-20T19:53:07.524Z,86.00
2023-05-20T19:55:36.343Z,86.10
2023-05-20T19:58:04.548Z,86.00
2023-05-20T20:00:31.752Z,85.90
2023-05-20T20:02:59.690Z,86.00
2023-05-20T20:05:27.056Z,85.90
2023-05-20T20:07:54.406Z,85.80
2023-05-20T20:10:21.702Z,86.20
2023-05-20T20:12:49.895Z,86.30
2023-05-20T20:15:17.186Z,86.10
2023-05-20T20:17:45.688Z,86.00
2023-05-20T20:20:15.597Z,85.90
2023-05-20T20:22:42.740Z,86.00
2023-05-20T20:25:10.204Z,86.00
2023-05-20T20:27:37.498Z,86.20
2023-05-20T20:30:04.992Z,86.00
2023-05-20T20:32:32.305Z,85.90
2023-05-20T20:34:59.642Z,86.20
2023-05-20T20:37:27.491Z,86.20
2023-05-20T20:39:55.346Z,86.00
2023-05-20T20:42:22.778Z,86.20
2023-05-20T20:44:52.627Z,86.10
2023-05-20T20:47:19.848Z,86.90
2023-05-20T20:49:47.065Z,86.20
2023-05-20T20:52:14.191Z,86.20
2023-05-20T20:54:43.274Z,86.30
2023-05-20T20:57:17.209Z,86.30
2023-05-20T20:59:47.996Z,86.30
2023-05-20T21:02:15.555Z,86.40
2023-05-20T21:04:43.227Z,86.30
2023-05-20T21:07:12.180Z,86.50
2023-05-20T21:09:39.471Z,86.40
2023-05-20T21:12:07.019Z,86.50
2023-05-20T21:14:34.356Z,86.60
2023-05-20T21:17:01.610Z,86.50
2023-05-20T21:19:30.104Z,86.50
2023-05-20T21:21:57.589Z,86.50
2023-05-20T21:24:24.929Z,86.50
2023-05-20T21:26:52.517Z,86.40
2023-05-20T21:29:19.893Z,86.50
2023-05-20T21:31:47.222Z,86.60
2023-05-20T21:34:14.646Z,86.60
2023-05-20T21:36:42.108Z,86.60
2023-05-20T21:39:09.341Z,86.90
2023-05-20T21:41:36.717Z,86.80
2023-05-20T21:44:04.118Z,86.90
2023-05-20T21:46:31.664Z,87.10
2023-05-20T21:48:59.000Z,86.90
2023-05-20T21:51:26.286Z,87.00
2023-05-20T21:53:53.638Z,87.00
2023-05-20T21:56:21.772Z,87.00
2023-05-20T21:58:49.173Z,87.00
2023-05-20T22:01:16.423Z,87.10
2023-05-20T22:03:47.970Z,87.10
2023-05-20T22:06:17.183Z,87.20
2023-05-20T22:08:44.565Z,87.20
2023-05-20T22:11:11.916Z,87.20
2023-05-20T22:13:42.949Z,87.20
2023-05-20T22:16:10.506Z,87.30
2023-05-20T22:18:38.649Z,87.30
2023-05-20T22:21:06.618Z,87.40
2023-05-20T22:23:34.046Z,87.40
2023-05-20T22:26:01.829Z,88.10
2023-05-20T22:28:29.166Z,87.60
2023-05-20T22:30:56.690Z,87.90
2023-05-20T22:33:24.480Z,87.80
2023-05-20T22:35:53.629Z,87.80
2023-05-20T22:38:21.554Z,87.70
2023-05-20T22:40:48.895Z,87.70
2023-05-20T22:43:17.499Z,87.60
2023-05-20T22:45:44.569Z,87.60
2023-05-20T22:48:12.506Z,87.70
2023-05-20T22:50:39.546Z,87.70
2023-05-20T22:53:07.216Z,88.20
2023-05-20T22:55:34.653Z,88.90
2023-05-20T22:58:02.366Z,88.50
2023-05-20T23:00:29.765Z,88.30
2023-05-20T23:02:57.101Z,88.40
2023-05-20T23:05:24.247Z,89.10
2023-05-20T23:07:53.104Z,88.90
2023-05-20T23:10:20.541Z,88.90
2023-05-20T23:12:47.744Z,89.00
2023-05-20T23:15:15.007Z,89.40
2023-05-20T23:17:42.769Z,89.70
2023-05-20T23:20:11.329Z,89.70
2023-05-20T23:22:38.360Z,89.30
2023-05-20T23:25:05.952Z,88.90
2023-05-20T23:27:33.471Z,88.70
2023-05-20T23:30:00.690Z,88.80
2023-05-20T23:32:27.873Z,88.80
2023-05-20T23:34:55.326Z,88.90
2023-05-20T23:37:22.728Z,88.90
2023-05-20T23:39:49.861Z,88.70
2023-05-20T23:42:16.936Z,88.70
2023-05-20T23:44:44.060Z,88.60
2023-05-20T23:47:13.612Z,88.70
2023-05-20T23:49:41.636Z,88.70
2023-05-20T23:52:08.857Z,88.60
2023-05-20T23:54:35.998Z,88.70
2023-05-20T23:57:03.182Z,88.70
2023-05-20T23:59:30.289Z,88.70
